Garden Hill, Illinois
Current Conditions -  °F | °C
As of 4:15 AM on Friday 19 Dec 2014 (Local Time) from KFOA Reporting Station
Haze Haze  
Wind Chill: 22°   Ceiling: Unl
Heat Index: 27°   Visibility: 5mi
Dew Point: 25°   Wind: 5mph
Humidity: 92%   Direction: 10°N
Pressure: 30.3"   Gusts: NA
Location:  38.6949°N, 88.6407°W
Report Text: KFOA 191015Z AUTO 01004KT 5SM BR CLR M03/M04 A3030 RMK AO2 T10281040
Loading
Personal Weather Stations






























Interactive Weather Map New forecast layout! Learn more

10-Day Weather Forecast

Advertisements
Track Severe Weather on mobile